• Join FlightAware (Why Join?)
  • Login
  • US Flag 
03:25PM EST


 

Airport Tracker/Info


-or-


 

Live Flight TrackerFlight Track Log ✈ UAL582 ✈ 16-May-2013 ✈ KORD - KATL

Flight Track Log - Related Links

Times and Time Zones

All times are in EDT time to prevent confusion due to time zone crossing. See the UAL582 flight status page for this flight to view local times or setup timezone preferences in your user account.

Time Position Orientation Groundspeed Altitude Reporting Facility
EDT Latitude Longitude Course Direction KTS MPH feet Rate Location/Type
07:45PM 41.8656 -87.7628 147° Southeast 259 298 5,000  Level Chicago Center
07:47PM 41.7933 -87.7725 186° South 265 305 5,100 1,620 Climbing Chicago Center
07:48PM 41.7275 -87.8144 205° Southwest 270 311 8,400 3,000 Climbing Chicago Center
07:49PM 41.6500 -87.8306 189° South 280 322 11,400 2,580 Climbing Chicago Center
07:50PM 41.5647 -87.8489 189° South 308 354 13,800 1,740 Climbing Chicago Center
07:51PM 41.4619 -87.8689 188° South 367 422 15,100 1,860 Climbing Chicago Center
07:52PM 41.3500 -87.8836 186° South 394 453 17,700 2,340 Climbing Chicago Center
07:53PM 41.2094 -87.8917 182° South 414 476 20,000 2,160 Climbing Chicago Center
07:54PM 41.0886 -87.8878 179° South 432 497 22,200 1,740 Climbing Chicago Center
07:55PM 40.9672 -87.8831 178° South 436 502 23,700 1,440 Climbing Chicago Center
07:56PM 40.8406 -87.8781 178° South 453 521 25,200 1,500 Climbing Chicago Center
07:57PM 40.7125 -87.8753 179° South 461 531 26,900 1,680 Climbing Chicago Center
07:58PM 40.5575 -87.8694 178° South 465 535 28,700 1,860 Climbing Chicago Center
07:59PM 40.4303 -87.8656 179° South 462 532 30,800 1,920 Climbing Chicago Center
08:00PM 40.3439 -87.8661 180° South 458 527 32,000 1,800 Climbing Indianapolis Center
08:01PM 40.2217 -87.8597 178° South 446 513 33,900 1,440 Climbing Indianapolis Center
08:02PM 40.1008 -87.8553 178° South 439 505 35,000 480 Climbing Indianapolis Center
08:03PM 39.9817 -87.8489 178° South 434 499 35,000 240 Level Indianapolis Center
08:04PM 39.8619 -87.8442 178° South 433 498 35,500 840 Climbing Indianapolis Center
08:05PM 39.7433 -87.8369 177° South 433 498 36,800 720 Climbing Indianapolis Center
08:06PM 39.6019 -87.7894 165° South 438 504 37,000 60 Climbing Indianapolis Center
08:07PM 39.4789 -87.7489 166° South 454 522 37,000  Level Indianapolis Center
08:08PM 39.3564 -87.7072 165° South 446 513 37,000 -60 Level Indianapolis Center
08:09PM 39.2350 -87.6675 166° South 446 513 36,900 -60 Descending Indianapolis Center
08:10PM 39.1133 -87.6272 166° South 450 518 36,900  Level Indianapolis Center
08:11PM 38.9911 -87.5861 165° South 454 522 37,000  Climbing Indianapolis Center
08:12PM 38.8678 -87.5461 166° South 454 522 37,000  Level Indianapolis Center
08:13PM 38.7453 -87.5067 166° South 455 524 37,000  Level Indianapolis Center
08:14PM 38.5978 -87.4581 166° South 455 524 37,000 -60 Level Indianapolis Center
08:15PM 38.4756 -87.4178 166° South 455 524 36,900 -60 Descending Indianapolis Center
08:16PM 38.3531 -87.3803 167° South 455 524 36,900  Level Indianapolis Center
08:17PM 38.2306 -87.3400 166° South 460 529 37,000  Climbing Indianapolis Center
08:18PM 38.1081 -87.3006 166° South 460 529 37,000  Level Indianapolis Center
08:19PM 37.9839 -87.2608 166° South 461 531 37,000  Level Indianapolis Center
08:20PM 37.8353 -87.2117 165° South 460 529 37,000  Level Indianapolis Center
08:21PM 37.7111 -87.1731 166° South 460 529 37,000 -60 Level Indianapolis Center
08:22PM 37.5881 -87.1339 166° South 456 525 36,900 -60 Descending Indianapolis Center
08:23PM 37.4675 -87.0981 167° South 454 522 36,900  Level Indianapolis Center
08:24PM 37.3425 -87.0578 166° South 458 527 36,900  Level Indianapolis Center
08:25PM 37.2097 -87.0156 166° South 453 521 36,900  Level Memphis Center
08:26PM 37.0858 -86.9764 166° South 458 527 37,000  Climbing Memphis Center
08:27PM 36.9617 -86.9375 166° South 458 527 37,000  Level Memphis Center
08:28PM 36.8378 -86.8989 166° South 458 527 37,000  Level Memphis Center
08:29PM 36.7117 -86.8603 166° South 453 521 37,000 -600 Level Memphis Center
08:30PM 36.5897 -86.8217 166° South 453 521 35,900 -1,080 Descending Memphis Center
08:31PM 36.4675 -86.7806 165° South 453 521 34,900 -780 Descending Memphis Center
08:32PM 36.3392 -86.7397 166° South 463 533 34,400 -960 Descending Memphis Center
08:33PM 36.2217 -86.7089 168° South 476 548 33,000 -720 Descending Memphis Center
08:34PM 36.0864 -86.6456 159° South 476 548 33,000  Level Memphis Center
08:35PM 35.9731 -86.5533 147° Southeast 471 542 33,000  Level Memphis Center
08:36PM 35.8617 -86.4636 147° Southeast 481 554 33,000  Level Memphis Center
08:38PM 35.6950 -86.3300 147° Southeast 478 550 33,000 -60 Level Atlanta Center
08:39PM 35.5819 -86.2372 146° Southeast 483 556 32,900 -60 Descending Atlanta Center
08:40PM 35.4583 -86.1372 147° Southeast 483 556 32,900 -660 Level Atlanta Center
08:41PM 35.3556 -86.0556 147° Southeast 489 563 31,600 -1,440 Descending Atlanta Center
08:42PM 35.2400 -85.9664 148° Southeast 484 557 30,100 -1,500 Descending Atlanta Center
08:43PM 35.1183 -85.8669 146° Southeast 484 557 28,600 -1,500 Descending Atlanta Center
08:44PM 35.0050 -85.7783 147° Southeast 484 557 27,100 -1,500 Descending Atlanta Center
08:45PM 34.8975 -85.6925 147° Southeast 479 551 25,600 -1,500 Descending Atlanta Center
08:46PM 34.7881 -85.6069 147° Southeast 473 544 24,100 -1,140 Descending Atlanta Center
08:47PM 34.6806 -85.5239 148° Southeast 473 544 23,400 -1,200 Descending Atlanta Center
08:48PM 34.5772 -85.4414 147° Southeast 467 537 21,800 -1,620 Descending Atlanta Center
08:49PM 34.4758 -85.3617 147° Southeast 446 513 20,200 -1,620 Descending Atlanta Center
08:50PM 34.3869 -85.2922 147° Southeast 436 502 18,600 -1,560 Descending Atlanta Center
08:51PM 34.2853 -85.2181 149° Southeast 429 494 17,100 -1,500 Descending Atlanta Center
08:52PM 34.1922 -85.1414 146° Southeast 418 481 15,600 -1,500 Descending Atlanta Center
08:53PM 34.1136 -85.0550 138° Southeast 393 452 14,100 -840 Descending Atlanta Center
08:54PM 34.0453 -84.9689 134° Southeast 367 422 14,000 -720 Descending Atlanta Center
08:55PM 33.9750 -84.8781 133° Southeast 361 415 12,700 -1,020 Descending Atlanta Center
08:56PM 33.9067 -84.7897 133° Southeast 356 410 12,000 -360 Descending Atlanta Center
08:57PM 33.8364 -84.7039 135° Southeast 356 410 12,000  Level Atlanta Center
08:58PM 33.7678 -84.6186 134° Southeast 356 410 12,000 -60 Level Atlanta Center
08:59PM 33.7308 -84.5208 114° Southeast 326 375 11,900 -300 Descending Atlanta Center
09:00PM 33.7333 -84.4167 88° East 251 289 11,400 -1,140 Descending Atlanta TRACON
09:01PM 33.7333 -84.3500 90° East 229 264 9,700 -2,040 Descending Atlanta TRACON
09:02PM 33.7333 -84.2833 90° East 225 259 7,800 -1,980 Descending Atlanta TRACON
09:03PM 33.7333 -84.2167 90° East 220 253 6,000 -1,800 Descending Atlanta TRACON
09:04PM 33.6833 -84.2167 180° South 200 230 4,100 -1,320 Descending Atlanta TRACON
09:05PM 33.6667 -84.2500 239° Southwest 179 206 3,400 -780 Descending Atlanta TRACON